sensor_id;sensor_type;location;lat;lon;timestamp;temperature;humidity
8402;DHT22;4238;48.404;9.498;2023-03-14T00:01:11;8.20;99.90
8402;DHT22;4238;48.404;9.498;2023-03-14T00:03:39;8.20;99.90
8402;DHT22;4238;48.404;9.498;2023-03-14T00:06:07;8.10;99.90
8402;DHT22;4238;48.404;9.498;2023-03-14T00:08:34;8.10;99.90
8402;DHT22;4238;48.404;9.498;2023-03-14T00:11:06;8.00;99.90
8402;DHT22;4238;48.404;9.498;2023-03-14T00:13:33;7.90;99.90
8402;DHT22;4238;48.404;9.498;2023-03-14T00:16:07;7.80;99.90
8402;DHT22;4238;48.404;9.498;2023-03-14T00:18:34;7.90;99.90
8402;DHT22;4238;48.404;9.498;2023-03-14T00:21:03;7.70;99.90
8402;DHT22;4238;48.404;9.498;2023-03-14T00:23:32;7.80;99.90
8402;DHT22;4238;48.404;9.498;2023-03-14T00:25:59;7.70;99.90
8402;DHT22;4238;48.404;9.498;2023-03-14T00:28:26;7.60;99.90
8402;DHT22;4238;48.404;9.498;2023-03-14T00:30:53;7.50;99.90
8402;DHT22;4238;48.404;9.498;2023-03-14T00:33:23;7.50;99.90
8402;DHT22;4238;48.404;9.498;2023-03-14T00:35:54;7.40;99.90
8402;DHT22;4238;48.404;9.498;2023-03-14T00:38:22;7.40;99.90
8402;DHT22;4238;48.404;9.498;2023-03-14T00:40:49;7.30;99.90
8402;DHT22;4238;48.404;9.498;2023-03-14T00:43:16;7.40;99.90
8402;DHT22;4238;48.404;9.498;2023-03-14T00:45:44;7.30;99.90
8402;DHT22;4238;48.404;9.498;2023-03-14T00:48:10;7.30;99.90
8402;DHT22;4238;48.404;9.498;2023-03-14T00:50:40;7.20;99.90
8402;DHT22;4238;48.404;9.498;2023-03-14T00:53:07;7.20;99.90
8402;DHT22;4238;48.404;9.498;2023-03-14T00:55:36;7.20;99.90
8402;DHT22;4238;48.404;9.498;2023-03-14T00:58:03;7.20;99.90
8402;DHT22;4238;48.404;9.498;2023-03-14T01:00:30;7.40;99.90
8402;DHT22;4238;48.404;9.498;2023-03-14T01:02:57;7.40;99.90
8402;DHT22;4238;48.404;9.498;2023-03-14T01:05:24;7.30;99.90
8402;DHT22;4238;48.404;9.498;2023-03-14T01:07:53;7.40;99.90
8402;DHT22;4238;48.404;9.498;2023-03-14T01:10:20;7.50;99.90
8402;DHT22;4238;48.404;9.498;2023-03-14T01:12:46;7.50;99.90
8402;DHT22;4238;48.404;9.498;2023-03-14T01:15:13;7.50;99.90
8402;DHT22;4238;48.404;9.498;2023-03-14T01:17:41;7.50;99.90
8402;DHT22;4238;48.404;9.498;2023-03-14T01:20:10;7.40;99.90
8402;DHT22;4238;48.404;9.498;2023-03-14T01:22:38;7.40;99.90
8402;DHT22;4238;48.404;9.498;2023-03-14T01:25:09;7.50;99.90
8402;DHT22;4238;48.404;9.498;2023-03-14T01:27:36;7.50;99.90
8402;DHT22;4238;48.404;9.498;2023-03-14T01:30:04;7.50;99.90
8402;DHT22;4238;48.404;9.498;2023-03-14T01:32:31;7.40;99.90
8402;DHT22;4238;48.404;9.498;2023-03-14T01:34:58;7.30;99.90
8402;DHT22;4238;48.404;9.498;2023-03-14T01:37:25;7.30;99.90
8402;DHT22;4238;48.404;9.498;2023-03-14T01:39:52;7.30;99.90
8402;DHT22;4238;48.404;9.498;2023-03-14T01:42:20;7.40;99.90
8402;DHT22;4238;48.404;9.498;2023-03-14T01:44:49;7.50;99.90
8402;DHT22;4238;48.404;9.498;2023-03-14T01:47:16;7.50;99.90
8402;DHT22;4238;48.404;9.498;2023-03-14T01:49:45;7.50;99.90
8402;DHT22;4238;48.404;9.498;2023-03-14T01:52:13;7.50;99.90
8402;DHT22;4238;48.404;9.498;2023-03-14T01:54:43;7.50;99.90
8402;DHT22;4238;48.404;9.498;2023-03-14T01:57:14;7.50;99.90
8402;DHT22;4238;48.404;9.498;2023-03-14T01:59:48;7.50;99.90
8402;DHT22;4238;48.404;9.498;2023-03-14T02:02:18;7.50;99.90
8402;DHT22;4238;48.404;9.498;2023-03-14T02:04:45;7.50;99.90
8402;DHT22;4238;48.404;9.498;2023-03-14T02:07:16;7.50;99.90
8402;DHT22;4238;48.404;9.498;2023-03-14T02:09:44;7.50;99.90
8402;DHT22;4238;48.404;9.498;2023-03-14T02:12:13;7.50;99.90
8402;DHT22;4238;48.404;9.498;2023-03-14T02:14:40;7.50;99.90
8402;DHT22;4238;48.404;9.498;2023-03-14T02:17:09;7.50;99.90
8402;DHT22;4238;48.404;9.498;2023-03-14T02:19:49;7.40;99.90
8402;DHT22;4238;48.404;9.498;2023-03-14T02:22:17;7.40;99.90
8402;DHT22;4238;48.404;9.498;2023-03-14T02:24:48;7.50;99.90
8402;DHT22;4238;48.404;9.498;2023-03-14T02:27:18;7.50;99.90
8402;DHT22;4238;48.404;9.498;2023-03-14T02:29:50;7.60;99.90
8402;DHT22;4238;48.404;9.498;2023-03-14T02:32:19;7.50;99.90
8402;DHT22;4238;48.404;9.498;2023-03-14T02:34:50;7.50;99.90
8402;DHT22;4238;48.404;9.498;2023-03-14T02:37:20;7.40;99.90
8402;DHT22;4238;48.404;9.498;2023-03-14T02:39:48;7.50;99.90
8402;DHT22;4238;48.404;9.498;2023-03-14T02:42:15;7.50;99.90
8402;DHT22;4238;48.404;9.498;2023-03-14T02:44:50;7.50;99.90
8402;DHT22;4238;48.404;9.498;2023-03-14T02:47:20;7.60;99.90
8402;DHT22;4238;48.404;9.498;2023-03-14T02:49:48;7.60;99.90
8402;DHT22;4238;48.404;9.498;2023-03-14T02:52:15;7.50;99.90
8402;DHT22;4238;48.404;9.498;2023-03-14T02:54:42;7.60;99.90
8402;DHT22;4238;48.404;9.498;2023-03-14T02:57:09;7.60;99.90
8402;DHT22;4238;48.404;9.498;2023-03-14T02:59:36;7.60;99.90
8402;DHT22;4238;48.404;9.498;2023-03-14T03:02:04;7.60;99.90
8402;DHT22;4238;48.404;9.498;2023-03-14T03:04:31;7.70;99.90
8402;DHT22;4238;48.404;9.498;2023-03-14T03:06:58;7.70;99.90
8402;DHT22;4238;48.404;9.498;2023-03-14T03:09:24;7.70;99.90
8402;DHT22;4238;48.404;9.498;2023-03-14T03:11:51;7.70;99.90
8402;DHT22;4238;48.404;9.498;2023-03-14T03:14:18;7.70;99.90
8402;DHT22;4238;48.404;9.498;2023-03-14T03:16:45;7.70;99.90
8402;DHT22;4238;48.404;9.498;2023-03-14T03:19:13;7.80;99.90
8402;DHT22;4238;48.404;9.498;2023-03-14T03:21:41;7.60;99.90
8402;DHT22;4238;48.404;9.498;2023-03-14T03:24:08;7.60;99.90
8402;DHT22;4238;48.404;9.498;2023-03-14T03:26:35;7.70;99.90
8402;DHT22;4238;48.404;9.498;2023-03-14T03:29:03;7.60;99.90
8402;DHT22;4238;48.404;9.498;2023-03-14T03:31:30;7.60;99.90
8402;DHT22;4238;48.404;9.498;2023-03-14T03:33:57;7.50;99.90
8402;DHT22;4238;48.404;9.498;2023-03-14T03:36:26;7.50;99.90
8402;DHT22;4238;48.404;9.498;2023-03-14T03:38:53;7.50;99.90
8402;DHT22;4238;48.404;9.498;2023-03-14T03:41:20;7.50;99.90
8402;DHT22;4238;48.404;9.498;2023-03-14T03:43:47;7.50;99.90
8402;DHT22;4238;48.404;9.498;2023-03-14T03:46:14;7.50;99.90
8402;DHT22;4238;48.404;9.498;2023-03-14T03:48:40;7.60;99.90
8402;DHT22;4238;48.404;9.498;2023-03-14T03:51:10;7.50;99.90
8402;DHT22;4238;48.404;9.498;2023-03-14T03:53:40;7.50;99.90
8402;DHT22;4238;48.404;9.498;2023-03-14T03:56:08;7.50;99.90
8402;DHT22;4238;48.404;9.498;2023-03-14T03:58:35;7.50;99.90
8402;DHT22;4238;48.404;9.498;2023-03-14T04:01:04;7.50;99.90
8402;DHT22;4238;48.404;9.498;2023-03-14T04:03:31;7.50;99.90
8402;DHT22;4238;48.404;9.498;2023-03-14T04:05:59;7.50;99.90
8402;DHT22;4238;48.404;9.498;2023-03-14T04:08:26;7.50;99.90
8402;DHT22;4238;48.404;9.498;2023-03-14T04:10:56;7.40;99.90
8402;DHT22;4238;48.404;9.498;2023-03-14T04:13:23;7.40;99.90
8402;DHT22;4238;48.404;9.498;2023-03-14T04:15:51;7.40;99.90
8402;DHT22;4238;48.404;9.498;2023-03-14T04:18:19;7.40;99.90
8402;DHT22;4238;48.404;9.498;2023-03-14T04:20:50;7.40;99.90
8402;DHT22;4238;48.404;9.498;2023-03-14T04:23:17;7.40;99.90
8402;DHT22;4238;48.404;9.498;2023-03-14T04:25:44;7.40;99.90
8402;DHT22;4238;48.404;9.498;2023-03-14T04:28:12;7.40;99.90
8402;DHT22;4238;48.404;9.498;2023-03-14T04:30:39;7.30;99.90
8402;DHT22;4238;48.404;9.498;2023-03-14T04:33:06;7.30;99.90
8402;DHT22;4238;48.404;9.498;2023-03-14T04:35:33;7.30;99.90
8402;DHT22;4238;48.404;9.498;2023-03-14T04:38:00;7.30;99.90
8402;DHT22;4238;48.404;9.498;2023-03-14T04:40:27;7.30;99.90
8402;DHT22;4238;48.404;9.498;2023-03-14T04:42:54;7.30;99.90
8402;DHT22;4238;48.404;9.498;2023-03-14T04:45:22;7.20;99.90
8402;DHT22;4238;48.404;9.498;2023-03-14T04:47:49;7.20;99.90
8402;DHT22;4238;48.404;9.498;2023-03-14T04:50:16;7.20;99.90
8402;DHT22;4238;48.404;9.498;2023-03-14T04:52:43;7.20;99.90
8402;DHT22;4238;48.404;9.498;2023-03-14T04:55:10;7.20;99.90
8402;DHT22;4238;48.404;9.498;2023-03-14T04:57:36;7.10;99.90
8402;DHT22;4238;48.404;9.498;2023-03-14T05:00:05;7.10;99.90
8402;DHT22;4238;48.404;9.498;2023-03-14T05:02:34;7.10;99.90
8402;DHT22;4238;48.404;9.498;2023-03-14T05:05:01;7.10;99.90
8402;DHT22;4238;48.404;9.498;2023-03-14T05:07:28;7.10;99.90
8402;DHT22;4238;48.404;9.498;2023-03-14T05:09:55;7.00;99.90
8402;DHT22;4238;48.404;9.498;2023-03-14T05:12:22;7.00;99.90
8402;DHT22;4238;48.404;9.498;2023-03-14T05:14:49;6.90;99.90
8402;DHT22;4238;48.404;9.498;2023-03-14T05:17:15;6.90;99.90
8402;DHT22;4238;48.404;9.498;2023-03-14T05:19:45;7.00;99.90
8402;DHT22;4238;48.404;9.498;2023-03-14T05:22:13;6.90;99.90
8402;DHT22;4238;48.404;9.498;2023-03-14T05:24:40;6.90;99.90
8402;DHT22;4238;48.404;9.498;2023-03-14T05:27:07;6.90;99.90
8402;DHT22;4238;48.404;9.498;2023-03-14T05:29:34;6.80;99.90
8402;DHT22;4238;48.404;9.498;2023-03-14T05:32:00;6.70;99.90
8402;DHT22;4238;48.404;9.498;2023-03-14T05:34:27;6.70;99.90
8402;DHT22;4238;48.404;9.498;2023-03-14T05:36:56;6.70;99.90
8402;DHT22;4238;48.404;9.498;2023-03-14T05:39:23;6.70;99.90
8402;DHT22;4238;48.404;9.498;2023-03-14T05:41:50;6.70;99.90
8402;DHT22;4238;48.404;9.498;2023-03-14T05:44:19;6.70;99.90
8402;DHT22;4238;48.404;9.498;2023-03-14T05:46:46;6.70;99.90
8402;DHT22;4238;48.404;9.498;2023-03-14T05:49:13;6.70;99.90
8402;DHT22;4238;48.404;9.498;2023-03-14T05:51:40;6.70;99.90
8402;DHT22;4238;48.404;9.498;2023-03-14T05:54:08;6.60;99.90
8402;DHT22;4238;48.404;9.498;2023-03-14T05:56:35;6.50;99.90
8402;DHT22;4238;48.404;9.498;2023-03-14T05:59:01;6.60;99.90
8402;DHT22;4238;48.404;9.498;2023-03-14T06:01:29;6.60;99.90
8402;DHT22;4238;48.404;9.498;2023-03-14T06:03:56;6.50;99.90
8402;DHT22;4238;48.404;9.498;2023-03-14T06:06:23;6.40;99.90
8402;DHT22;4238;48.404;9.498;2023-03-14T06:08:50;6.50;99.90
8402;DHT22;4238;48.404;9.498;2023-03-14T06:11:18;6.40;99.90
8402;DHT22;4238;48.404;9.498;2023-03-14T06:13:45;6.40;99.90
8402;DHT22;4238;48.404;9.498;2023-03-14T06:16:12;6.50;99.90
8402;DHT22;4238;48.404;9.498;2023-03-14T06:18:39;6.40;99.90
8402;DHT22;4238;48.404;9.498;2023-03-14T06:21:07;6.50;99.90
8402;DHT22;4238;48.404;9.498;2023-03-14T06:23:34;6.50;99.90
8402;DHT22;4238;48.404;9.498;2023-03-14T06:26:01;6.50;99.90
8402;DHT22;4238;48.404;9.498;2023-03-14T06:28:29;6.50;99.90
8402;DHT22;4238;48.404;9.498;2023-03-14T06:30:56;6.40;99.90
8402;DHT22;4238;48.404;9.498;2023-03-14T06:33:23;6.40;99.90
8402;DHT22;4238;48.404;9.498;2023-03-14T06:35:50;6.50;99.90
8402;DHT22;4238;48.404;9.498;2023-03-14T06:38:17;6.50;99.90
8402;DHT22;4238;48.404;9.498;2023-03-14T06:40:44;6.50;99.90
8402;DHT22;4238;48.404;9.498;2023-03-14T06:43:11;6.50;99.90
8402;DHT22;4238;48.404;9.498;2023-03-14T06:45:39;6.50;99.90
8402;DHT22;4238;48.404;9.498;2023-03-14T06:48:06;6.50;99.90
8402;DHT22;4238;48.404;9.498;2023-03-14T06:50:34;6.60;99.90
8402;DHT22;4238;48.404;9.498;2023-03-14T06:53:01;6.60;99.90
8402;DHT22;4238;48.404;9.498;2023-03-14T06:55:28;6.60;99.90
8402;DHT22;4238;48.404;9.498;2023-03-14T06:57:54;6.60;99.90
8402;DHT22;4238;48.404;9.498;2023-03-14T07:00:22;6.60;99.90
8402;DHT22;4238;48.404;9.498;2023-03-14T07:02:50;6.60;99.90
8402;DHT22;4238;48.404;9.498;2023-03-14T07:05:17;6.60;99.90
8402;DHT22;4238;48.404;9.498;2023-03-14T07:07:44;6.60;99.90
8402;DHT22;4238;48.404;9.498;2023-03-14T07:10:11;6.70;99.90
8402;DHT22;4238;48.404;9.498;2023-03-14T07:12:38;6.70;99.90
8402;DHT22;4238;48.404;9.498;2023-03-14T07:15:06;6.80;99.90
8402;DHT22;4238;48.404;9.498;2023-03-14T07:17:33;6.90;99.90
8402;DHT22;4238;48.404;9.498;2023-03-14T07:20:01;6.90;99.90
8402;DHT22;4238;48.404;9.498;2023-03-14T07:22:29;7.00;99.90
8402;DHT22;4238;48.404;9.498;2023-03-14T07:24:56;7.00;99.90
8402;DHT22;4238;48.404;9.498;2023-03-14T07:27:23;7.10;99.90
8402;DHT22;4238;48.404;9.498;2023-03-14T07:29:50;7.10;99.90
8402;DHT22;4238;48.404;9.498;2023-03-14T07:32:17;7.00;99.60
8402;DHT22;4238;48.404;9.498;2023-03-14T07:34:44;6.90;99.60
8402;DHT22;4238;48.404;9.498;2023-03-14T07:37:12;6.90;99.90
8402;DHT22;4238;48.404;9.498;2023-03-14T07:39:39;7.00;97.50
8402;DHT22;4238;48.404;9.498;2023-03-14T07:42:06;7.00;99.30
8402;DHT22;4238;48.404;9.498;2023-03-14T07:44:33;7.10;99.90
8402;DHT22;4238;48.404;9.498;2023-03-14T07:47:00;7.10;96.80
8402;DHT22;4238;48.404;9.498;2023-03-14T07:49:27;7.30;93.10
8402;DHT22;4238;48.404;9.498;2023-03-14T07:51:53;7.40;92.90
8402;DHT22;4238;48.404;9.498;2023-03-14T07:54:22;7.40;91.90
8402;DHT22;4238;48.404;9.498;2023-03-14T07:56:50;7.60;93.60
8402;DHT22;4238;48.404;9.498;2023-03-14T07:59:17;7.90;87.00
8402;DHT22;4238;48.404;9.498;2023-03-14T08:01:44;8.20;73.90
8402;DHT22;4238;48.404;9.498;2023-03-14T08:04:11;8.50;51.70
8402;DHT22;4238;48.404;9.498;2023-03-14T08:06:38;8.80;51.10
8402;DHT22;4238;48.404;9.498;2023-03-14T08:09:05;8.80;38.40
8402;DHT22;4238;48.404;9.498;2023-03-14T08:11:33;8.70;23.10
8402;DHT22;4238;48.404;9.498;2023-03-14T08:14:00;8.80;33.30
8402;DHT22;4238;48.404;9.498;2023-03-14T08:16:27;8.90;33.40
8402;DHT22;4238;48.404;9.498;2023-03-14T08:18:54;9.10;23.70
8402;DHT22;4238;48.404;9.498;2023-03-14T08:21:21;9.00;17.70
8402;DHT22;4238;48.404;9.498;2023-03-14T08:23:48;8.60;30.00
8402;DHT22;4238;48.404;9.498;2023-03-14T08:26:15;8.70;35.70
8402;DHT22;4238;48.404;9.498;2023-03-14T08:28:43;8.60;44.40
8402;DHT22;4238;48.404;9.498;2023-03-14T08:31:10;8.90;46.50
8402;DHT22;4238;48.404;9.498;2023-03-14T08:33:37;9.20;40.00
8402;DHT22;4238;48.404;9.498;2023-03-14T08:36:04;9.40;26.60
8402;DHT22;4238;48.404;9.498;2023-03-14T08:38:31;9.40;8.50
8402;DHT22;4238;48.404;9.498;2023-03-14T08:40:59;9.80;9.10
8402;DHT22;4238;48.404;9.498;2023-03-14T08:43:27;10.00;1.00
8402;DHT22;4238;48.404;9.498;2023-03-14T08:45:57;10.20;1.00
8402;DHT22;4238;48.404;9.498;2023-03-14T08:48:24;10.20;1.00
8402;DHT22;4238;48.404;9.498;2023-03-14T08:50:51;10.00;1.00
8402;DHT22;4238;48.404;9.498;2023-03-14T08:53:18;10.00;1.00
8402;DHT22;4238;48.404;9.498;2023-03-14T08:55:51;9.90;1.00
8402;DHT22;4238;48.404;9.498;2023-03-14T08:58:18;9.70;1.00
8402;DHT22;4238;48.404;9.498;2023-03-14T09:00:45;9.60;1.00
8402;DHT22;4238;48.404;9.498;2023-03-14T09:03:13;9.60;1.00
8402;DHT22;4238;48.404;9.498;2023-03-14T09:05:41;9.50;1.00
8402;DHT22;4238;48.404;9.498;2023-03-14T09:08:07;9.50;1.00
8402;DHT22;4238;48.404;9.498;2023-03-14T09:10:34;9.60;3.50
8402;DHT22;4238;48.404;9.498;2023-03-14T09:13:01;9.80;1.00
8402;DHT22;4238;48.404;9.498;2023-03-14T09:15:28;9.90;1.00
8402;DHT22;4238;48.404;9.498;2023-03-14T09:17:55;10.60;1.00
8402;DHT22;4238;48.404;9.498;2023-03-14T09:20:23;11.20;1.00
8402;DHT22;4238;48.404;9.498;2023-03-14T09:22:50;11.70;1.00
8402;DHT22;4238;48.404;9.498;2023-03-14T09:25:17;11.90;1.00
8402;DHT22;4238;48.404;9.498;2023-03-14T09:27:44;11.80;99.90
8402;DHT22;4238;48.404;9.498;2023-03-14T09:30:11;11.70;1.00
8402;DHT22;4238;48.404;9.498;2023-03-14T09:32:38;11.50;99.90
8402;DHT22;4238;48.404;9.498;2023-03-14T09:35:05;11.30;1.00
8402;DHT22;4238;48.404;9.498;2023-03-14T09:37:34;11.30;1.00
8402;DHT22;4238;48.404;9.498;2023-03-14T09:40:00;11.30;1.00
8402;DHT22;4238;48.404;9.498;2023-03-14T09:42:35;11.50;1.00
8402;DHT22;4238;48.404;9.498;2023-03-14T09:45:05;12.00;1.00
8402;DHT22;4238;48.404;9.498;2023-03-14T09:47:33;12.10;99.90
8402;DHT22;4238;48.404;9.498;2023-03-14T09:50:01;12.10;99.90
8402;DHT22;4238;48.404;9.498;2023-03-14T09:52:31;11.90;1.00
8402;DHT22;4238;48.404;9.498;2023-03-14T09:55:03;12.00;60.30
8402;DHT22;4238;48.404;9.498;2023-03-14T09:57:32;11.80;1.00
8402;DHT22;4238;48.404;9.498;2023-03-14T10:00:03;11.70;99.90
8402;DHT22;4238;48.404;9.498;2023-03-14T10:02:38;11.50;99.90
8402;DHT22;4238;48.404;9.498;2023-03-14T10:05:14;11.10;1.00
8402;DHT22;4238;48.404;9.498;2023-03-14T10:07:42;10.80;99.90
8402;DHT22;4238;48.404;9.498;2023-03-14T10:10:15;10.80;1.00
8402;DHT22;4238;48.404;9.498;2023-03-14T10:12:45;11.10;1.00
8402;DHT22;4238;48.404;9.498;2023-03-14T10:15:14;11.50;1.00
8402;DHT22;4238;48.404;9.498;2023-03-14T10:17:47;11.70;99.90
8402;DHT22;4238;48.404;9.498;2023-03-14T10:20:30;11.70;1.00
8402;DHT22;4238;48.404;9.498;2023-03-14T10:23:02;11.00;99.90
8402;DHT22;4238;48.404;9.498;2023-03-14T10:25:33;11.00;1.00
8402;DHT22;4238;48.404;9.498;2023-03-14T10:28:01;10.60;1.00
8402;DHT22;4238;48.404;9.498;2023-03-14T10:30:39;10.50;1.00
8402;DHT22;4238;48.404;9.498;2023-03-14T10:33:11;10.40;1.00
8402;DHT22;4238;48.404;9.498;2023-03-14T10:35:39;10.40;1.00
8402;DHT22;4238;48.404;9.498;2023-03-14T10:38:13;10.40;1.00
8402;DHT22;4238;48.404;9.498;2023-03-14T10:40:47;10.30;1.00
8402;DHT22;4238;48.404;9.498;2023-03-14T10:43:17;10.10;1.00
8402;DHT22;4238;48.404;9.498;2023-03-14T10:45:51;10.00;1.00
8402;DHT22;4238;48.404;9.498;2023-03-14T10:48:21;10.10;1.00
8402;DHT22;4238;48.404;9.498;2023-03-14T10:50:50;10.20;1.00
8402;DHT22;4238;48.404;9.498;2023-03-14T10:53:19;10.30;1.00
8402;DHT22;4238;48.404;9.498;2023-03-14T10:55:48;10.30;1.00
8402;DHT22;4238;48.404;9.498;2023-03-14T10:58:23;10.20;1.00
8402;DHT22;4238;48.404;9.498;2023-03-14T11:01:02;10.20;1.00
8402;DHT22;4238;48.404;9.498;2023-03-14T11:03:33;10.10;1.00
8402;DHT22;4238;48.404;9.498;2023-03-14T11:06:06;10.20;1.00
8402;DHT22;4238;48.404;9.498;2023-03-14T11:08:41;10.40;1.00
8402;DHT22;4238;48.404;9.498;2023-03-14T11:11:16;10.60;1.00
8402;DHT22;4238;48.404;9.498;2023-03-14T11:13:51;10.70;1.00
8402;DHT22;4238;48.404;9.498;2023-03-14T11:16:27;10.60;1.00
8402;DHT22;4238;48.404;9.498;2023-03-14T11:19:20;10.30;1.00
8402;DHT22;4238;48.404;9.498;2023-03-14T11:21:55;10.20;1.00
8402;DHT22;4238;48.404;9.498;2023-03-14T11:24:36;10.10;5.30
8402;DHT22;4238;48.404;9.498;2023-03-14T11:27:15;10.00;27.50
8402;DHT22;4238;48.404;9.498;2023-03-14T11:29:51;9.70;42.00
8402;DHT22;4238;48.404;9.498;2023-03-14T11:32:36;9.50;58.60
8402;DHT22;4238;48.404;9.498;2023-03-14T11:35:16;9.40;65.00
8402;DHT22;4238;48.404;9.498;2023-03-14T11:37:46;9.20;76.40
8402;DHT22;4238;48.404;9.498;2023-03-14T11:40:18;9.10;84.40
8402;DHT22;4238;48.404;9.498;2023-03-14T11:42:53;9.00;90.40
8402;DHT22;4238;48.404;9.498;2023-03-14T11:45:26;9.00;91.90
8402;DHT22;4238;48.404;9.498;2023-03-14T11:48:12;8.80;99.80
8402;DHT22;4238;48.404;9.498;2023-03-14T11:50:43;8.90;99.90
8402;DHT22;4238;48.404;9.498;2023-03-14T11:53:14;8.80;97.30
8402;DHT22;4238;48.404;9.498;2023-03-14T11:55:43;8.80;99.90
8402;DHT22;4238;48.404;9.498;2023-03-14T11:58:15;8.80;99.90
8402;DHT22;4238;48.404;9.498;2023-03-14T12:00:44;8.80;99.90
8402;DHT22;4238;48.404;9.498;2023-03-14T12:03:17;8.60;95.90
8402;DHT22;4238;48.404;9.498;2023-03-14T12:05:51;8.70;99.90
8402;DHT22;4238;48.404;9.498;2023-03-14T12:08:46;8.80;99.90
8402;DHT22;4238;48.404;9.498;2023-03-14T12:11:19;8.60;99.90
8402;DHT22;4238;48.404;9.498;2023-03-14T12:13:49;8.60;99.90
8402;DHT22;4238;48.404;9.498;2023-03-14T12:16:38;8.70;99.90
8402;DHT22;4238;48.404;9.498;2023-03-14T12:19:30;8.70;99.90
8402;DHT22;4238;48.404;9.498;2023-03-14T12:22:01;8.80;99.90
8402;DHT22;4238;48.404;9.498;2023-03-14T12:24:32;8.80;99.90
8402;DHT22;4238;48.404;9.498;2023-03-14T12:27:01;8.80;99.90
8402;DHT22;4238;48.404;9.498;2023-03-14T12:29:30;8.90;99.90
8402;DHT22;4238;48.404;9.498;2023-03-14T12:32:21;8.80;99.90
8402;DHT22;4238;48.404;9.498;2023-03-14T12:34:49;8.70;97.60
8402;DHT22;4238;48.404;9.498;2023-03-14T12:37:23;8.70;99.90
8402;DHT22;4238;48.404;9.498;2023-03-14T12:40:17;8.70;98.10
8402;DHT22;4238;48.404;9.498;2023-03-14T12:42:57;8.70;99.90
8402;DHT22;4238;48.404;9.498;2023-03-14T12:45:28;8.70;99.90
8402;DHT22;4238;48.404;9.498;2023-03-14T12:48:08;8.60;99.00
8402;DHT22;4238;48.404;9.498;2023-03-14T12:50:40;8.50;99.90
8402;DHT22;4238;48.404;9.498;2023-03-14T12:56:26;8.40;99.90
8402;DHT22;4238;48.404;9.498;2023-03-14T12:59:24;7.90;92.50
8402;DHT22;4238;48.404;9.498;2023-03-14T13:01:57;7.60;96.50
8402;DHT22;4238;48.404;9.498;2023-03-14T13:04:28;7.40;84.80
8402;DHT22;4238;48.404;9.498;2023-03-14T13:06:58;7.30;63.40
8402;DHT22;4238;48.404;9.498;2023-03-14T13:09:45;7.30;74.30
8402;DHT22;4238;48.404;9.498;2023-03-14T13:12:17;7.30;75.70
8402;DHT22;4238;48.404;9.498;2023-03-14T13:14:46;7.40;78.40
8402;DHT22;4238;48.404;9.498;2023-03-14T13:17:19;7.60;92.50
8402;DHT22;4238;48.404;9.498;2023-03-14T13:19:51;7.90;72.00
8402;DHT22;4238;48.404;9.498;2023-03-14T13:22:21;8.00;58.20
8402;DHT22;4238;48.404;9.498;2023-03-14T13:24:50;8.10;54.10
8402;DHT22;4238;48.404;9.498;2023-03-14T13:27:18;8.00;37.20
8402;DHT22;4238;48.404;9.498;2023-03-14T13:29:48;7.90;40.10
8402;DHT22;4238;48.404;9.498;2023-03-14T13:32:20;7.80;55.60
8402;DHT22;4238;48.404;9.498;2023-03-14T13:34:48;7.80;60.30
8402;DHT22;4238;48.404;9.498;2023-03-14T13:37:16;7.60;48.80
8402;DHT22;4238;48.404;9.498;2023-03-14T13:39:49;7.60;62.90
8402;DHT22;4238;48.404;9.498;2023-03-14T13:42:17;7.70;76.40
8402;DHT22;4238;48.404;9.498;2023-03-14T13:44:44;7.60;59.30
8402;DHT22;4238;48.404;9.498;2023-03-14T13:47:15;7.60;56.40
8402;DHT22;4238;48.404;9.498;2023-03-14T13:49:44;7.50;52.90
8402;DHT22;4238;48.404;9.498;2023-03-14T13:52:23;7.40;24.60
8402;DHT22;4238;48.404;9.498;2023-03-14T13:54:53;7.30;37.40
8402;DHT22;4238;48.404;9.498;2023-03-14T13:57:20;7.10;6.60
8402;DHT22;4238;48.404;9.498;2023-03-14T13:59:59;6.90;1.00
8402;DHT22;4238;48.404;9.498;2023-03-14T14:02:27;6.70;1.00
8402;DHT22;4238;48.404;9.498;2023-03-14T14:04:56;6.60;1.00
8402;DHT22;4238;48.404;9.498;2023-03-14T14:07:24;6.60;1.00
8402;DHT22;4238;48.404;9.498;2023-03-14T14:09:52;6.60;1.00
8402;DHT22;4238;48.404;9.498;2023-03-14T14:12:22;6.60;1.00
8402;DHT22;4238;48.404;9.498;2023-03-14T14:14:53;6.50;1.00
8402;DHT22;4238;48.404;9.498;2023-03-14T14:17:25;6.50;1.00
8402;DHT22;4238;48.404;9.498;2023-03-14T14:19:55;6.40;1.00
8402;DHT22;4238;48.404;9.498;2023-03-14T14:22:23;6.20;1.00
8402;DHT22;4238;48.404;9.498;2023-03-14T14:24:50;6.10;1.00
8402;DHT22;4238;48.404;9.498;2023-03-14T14:27:23;6.10;1.00
8402;DHT22;4238;48.404;9.498;2023-03-14T14:29:59;6.00;1.00
8402;DHT22;4238;48.404;9.498;2023-03-14T14:32:34;5.80;1.00
8402;DHT22;4238;48.404;9.498;2023-03-14T14:35:03;5.70;1.00
8402;DHT22;4238;48.404;9.498;2023-03-14T14:37:32;5.70;1.00
8402;DHT22;4238;48.404;9.498;2023-03-14T14:40:06;5.70;1.00
8402;DHT22;4238;48.404;9.498;2023-03-14T14:42:34;5.80;1.00
8402;DHT22;4238;48.404;9.498;2023-03-14T14:45:09;5.80;1.00
8402;DHT22;4238;48.404;9.498;2023-03-14T14:47:49;5.80;1.00
8402;DHT22;4238;48.404;9.498;2023-03-14T14:50:28;5.80;1.00
8402;DHT22;4238;48.404;9.498;2023-03-14T14:52:57;5.80;1.00
8402;DHT22;4238;48.404;9.498;2023-03-14T14:55:30;5.80;1.00
8402;DHT22;4238;48.404;9.498;2023-03-14T14:57:57;5.80;2.10
8402;DHT22;4238;48.404;9.498;2023-03-14T15:00:26;5.80;1.00
8402;DHT22;4238;48.404;9.498;2023-03-14T15:02:58;5.90;1.00
8402;DHT22;4238;48.404;9.498;2023-03-14T15:05:28;6.00;1.00
8402;DHT22;4238;48.404;9.498;2023-03-14T15:08:01;6.00;1.00
8402;DHT22;4238;48.404;9.498;2023-03-14T15:10:28;5.90;1.00
8402;DHT22;4238;48.404;9.498;2023-03-14T15:12:55;5.90;1.00
8402;DHT22;4238;48.404;9.498;2023-03-14T15:15:22;5.80;1.00
8402;DHT22;4238;48.404;9.498;2023-03-14T15:17:48;5.70;1.00
8402;DHT22;4238;48.404;9.498;2023-03-14T15:20:17;5.70;1.00
8402;DHT22;4238;48.404;9.498;2023-03-14T15:22:46;5.70;1.00
8402;DHT22;4238;48.404;9.498;2023-03-14T15:25:13;5.80;1.00
8402;DHT22;4238;48.404;9.498;2023-03-14T15:27:40;5.80;1.00
8402;DHT22;4238;48.404;9.498;2023-03-14T15:30:10;5.80;1.00
8402;DHT22;4238;48.404;9.498;2023-03-14T15:32:37;5.80;1.00
8402;DHT22;4238;48.404;9.498;2023-03-14T15:35:05;5.90;1.00
8402;DHT22;4238;48.404;9.498;2023-03-14T15:37:33;6.00;99.90
8402;DHT22;4238;48.404;9.498;2023-03-14T15:40:02;6.10;99.90
8402;DHT22;4238;48.404;9.498;2023-03-14T15:42:35;6.20;1.00
8402;DHT22;4238;48.404;9.498;2023-03-14T15:45:03;6.20;1.00
8402;DHT22;4238;48.404;9.498;2023-03-14T15:47:30;6.20;1.00
8402;DHT22;4238;48.404;9.498;2023-03-14T15:49:57;6.40;99.90
8402;DHT22;4238;48.404;9.498;2023-03-14T15:52:24;6.60;1.00
8402;DHT22;4238;48.404;9.498;2023-03-14T15:54:51;6.60;99.90
8402;DHT22;4238;48.404;9.498;2023-03-14T15:57:19;6.70;99.90
8402;DHT22;4238;48.404;9.498;2023-03-14T15:59:46;6.50;10.80
8402;DHT22;4238;48.404;9.498;2023-03-14T16:02:13;6.40;99.90
8402;DHT22;4238;48.404;9.498;2023-03-14T16:04:40;6.40;99.90
8402;DHT22;4238;48.404;9.498;2023-03-14T16:07:07;6.40;50.80
8402;DHT22;4238;48.404;9.498;2023-03-14T16:09:34;6.60;24.50
8402;DHT22;4238;48.404;9.498;2023-03-14T16:12:01;6.70;1.00
8402;DHT22;4238;48.404;9.498;2023-03-14T16:14:31;6.60;99.90
8402;DHT22;4238;48.404;9.498;2023-03-14T16:16:58;6.50;99.90
8402;DHT22;4238;48.404;9.498;2023-03-14T16:19:25;6.40;99.90
8402;DHT22;4238;48.404;9.498;2023-03-14T16:21:53;6.40;1.00
8402;DHT22;4238;48.404;9.498;2023-03-14T16:24:20;6.30;1.00
8402;DHT22;4238;48.404;9.498;2023-03-14T16:26:46;6.20;1.00
8402;DHT22;4238;48.404;9.498;2023-03-14T16:29:14;6.20;1.00
8402;DHT22;4238;48.404;9.498;2023-03-14T16:31:42;6.00;99.90
8402;DHT22;4238;48.404;9.498;2023-03-14T16:34:09;6.00;99.90
8402;DHT22;4238;48.404;9.498;2023-03-14T16:36:36;6.00;99.90